Time;durP1;ratioP1;P1;durP2;ratioP2;P2;SDS_P1;SDS_P2;PMS_P1;PMS_P2;Temp;Humidity;BMP_temperature;BMP_pressure;BME280_temperature;BME280_humidity;BME280_pressure;Samples;Min_cycle;Max_cycle;Signal;HPM_P1;HPM_P2
2023/04/06 00:00:31;;;;;;;6.55;4.45;;;4.20;98.60;;;;;;5111710;28;20528;-68
2023/04/06 00:02:57;;;;;;;7.30;4.57;;;4.20;98.40;;;;;;5111773;28;20032;-66
2023/04/06 00:05:22;;;;;;;6.00;4.60;;;4.20;98.50;;;;;;5111998;28;20428;-68
2023/04/06 00:07:49;;;;;;;6.20;4.47;;;4.10;98.50;;;;;;5112551;27;20115;-64
2023/04/06 00:10:16;;;;;;;4.68;3.97;;;4.10;98.40;;;;;;5111834;28;20517;-64
2023/04/06 00:12:43;;;;;;;8.60;4.40;;;4.10;98.60;;;;;;5111723;28;20044;-64
2023/04/06 00:15:09;;;;;;;7.40;4.20;;;4.10;98.50;;;;;;5112216;28;20046;-64
2023/04/06 00:17:35;;;;;;;7.65;4.80;;;4.10;98.50;;;;;;5111788;27;20070;-66
2023/04/06 00:20:01;;;;;;;6.63;4.55;;;4.00;98.50;;;;;;5111175;28;20092;-68
2023/04/06 00:22:26;;;;;;;5.65;4.32;;;4.00;98.50;;;;;;5111671;28;20042;-66
2023/04/06 00:24:52;;;;;;;4.97;3.90;;;4.00;98.60;;;;;;5111055;28;20134;-67
2023/04/06 00:27:18;;;;;;;6.18;4.68;;;3.90;98.50;;;;;;5094615;28;20055;-65
2023/04/06 00:29:44;;;;;;;7.93;4.60;;;3.90;98.70;;;;;;5111482;27;20051;-66
2023/04/06 00:32:10;;;;;;;5.72;4.30;;;3.90;98.70;;;;;;5112237;27;20061;-67
2023/04/06 00:34:35;;;;;;;6.32;4.53;;;3.80;98.80;;;;;;5110188;27;20051;-65
2023/04/06 00:37:01;;;;;;;6.15;4.35;;;3.80;98.70;;;;;;5111002;27;20051;-64
2023/04/06 00:39:27;;;;;;;6.53;4.80;;;3.80;98.70;;;;;;5111511;28;20542;-66
2023/04/06 00:41:53;;;;;;;7.22;4.93;;;3.80;98.60;;;;;;5111382;28;20043;-65
2023/04/06 00:44:19;;;;;;;6.88;4.88;;;3.80;98.70;;;;;;5112382;28;20040;-65
2023/04/06 00:46:46;;;;;;;7.00;4.80;;;3.80;98.70;;;;;;5110976;28;20042;-65
2023/04/06 00:49:11;;;;;;;5.47;4.53;;;3.80;98.80;;;;;;5111266;28;20055;-67
2023/04/06 00:51:37;;;;;;;6.15;4.47;;;3.70;98.80;;;;;;5110912;28;20514;-65
2023/04/06 00:54:03;;;;;;;6.80;4.43;;;3.70;98.80;;;;;;5111598;28;20040;-67
2023/04/06 00:56:29;;;;;;;6.43;4.63;;;3.70;98.80;;;;;;5111868;27;20052;-64
2023/04/06 00:58:55;;;;;;;5.97;4.70;;;3.70;98.90;;;;;;5110585;27;20043;-67
2023/04/06 01:01:21;;;;;;;6.07;4.53;;;3.60;99.00;;;;;;5112966;27;20039;-64
2023/04/06 01:03:49;;;;;;;6.13;4.50;;;3.50;99.60;;;;;;5109889;27;20039;-66
2023/04/06 01:06:15;;;;;;;7.45;4.90;;;3.50;99.90;;;;;;5112600;27;20039;-68
2023/04/06 01:08:41;;;;;;;5.70;4.53;;;3.50;99.90;;;;;;5093441;28;20088;-69
2023/04/06 01:11:07;;;;;;;6.18;4.70;;;3.50;99.80;;;;;;5112884;27;20043;-65
2023/04/06 01:13:33;;;;;;;7.82;4.53;;;3.40;99.80;;;;;;5110391;27;20140;-66
2023/04/06 01:15:58;;;;;;;8.27;4.70;;;3.40;99.90;;;;;;5112832;27;20482;-66
2023/04/06 01:18:28;;;;;;;8.38;5.00;;;3.30;99.90;;;;;;5114622;27;20039;-64
2023/04/06 01:20:54;;;;;;;7.13;4.88;;;3.30;99.90;;;;;;5111079;27;20397;-68
2023/04/06 01:23:20;;;;;;;6.72;4.78;;;3.30;99.90;;;;;;5109011;28;20039;-65
2023/04/06 01:25:45;;;;;;;7.32;4.60;;;3.30;99.90;;;;;;5111019;27;20038;-65
2023/04/06 01:28:11;;;;;;;6.40;4.95;;;3.30;99.90;;;;;;5109483;27;20043;-63
2023/04/06 01:30:37;;;;;;;6.35;5.05;;;3.20;99.90;;;;;;5111180;27;20448;-64
2023/04/06 01:33:03;;;;;;;5.07;4.57;;;3.20;99.90;;;;;;5109477;27;20092;-66
2023/04/06 01:35:29;;;;;;;7.32;5.20;;;3.20;99.90;;;;;;5109822;27;20439;-66
2023/04/06 01:37:55;;;;;;;7.18;5.22;;;3.10;99.90;;;;;;5109344;28;20409;-69
2023/04/06 01:40:21;;;;;;;6.28;5.13;;;3.10;99.90;;;;;;5111700;27;20114;-65
2023/04/06 01:42:47;;;;;;;11.10;5.40;;;3.00;99.90;;;;;;5109660;27;20040;-66
2023/04/06 01:45:12;;;;;;;7.05;5.20;;;3.00;99.90;;;;;;5109709;27;20051;-67
2023/04/06 01:47:38;;;;;;;6.15;4.93;;;2.90;99.90;;;;;;5110068;27;20077;-64
2023/04/06 01:50:06;;;;;;;7.35;4.70;;;2.90;99.90;;;;;;5110915;27;20067;-66
2023/04/06 01:52:32;;;;;;;9.50;5.55;;;2.80;99.90;;;;;;5092353;28;20047;-65
2023/04/06 01:54:58;;;;;;;7.43;5.68;;;2.80;99.90;;;;;;5109514;27;20043;-66
2023/04/06 01:57:25;;;;;;;6.78;4.70;;;2.70;99.90;;;;;;5109645;28;20051;-67
2023/04/06 01:59:51;;;;;;;6.38;5.28;;;2.70;99.90;;;;;;5109953;27;20040;-66
2023/04/06 02:02:17;;;;;;;7.07;5.05;;;2.70;99.90;;;;;;5108298;28;20114;-66
2023/04/06 02:04:43;;;;;;;7.63;5.53;;;2.60;99.90;;;;;;5109103;27;20114;-64
2023/04/06 02:07:08;;;;;;;8.25;5.60;;;2.60;99.90;;;;;;5111191;27;20512;-64
2023/04/06 02:09:34;;;;;;;8.82;5.60;;;2.60;99.90;;;;;;5109881;28;20024;-67
2023/04/06 02:12:01;;;;;;;7.95;5.10;;;2.60;99.90;;;;;;5109272;28;20089;-64
2023/04/06 02:14:27;;;;;;;11.02;5.38;;;2.60;99.90;;;;;;5110779;28;20055;-67
2023/04/06 02:16:52;;;;;;;7.78;4.88;;;2.60;99.90;;;;;;5109298;28;20417;-66
2023/04/06 02:19:18;;;;;;;7.40;5.30;;;2.60;99.90;;;;;;5144103;27;20490;-65
2023/04/06 02:21:44;;;;;;;7.03;5.40;;;2.50;99.90;;;;;;5110818;28;20058;-66
2023/04/06 02:24:09;;;;;;;7.10;5.32;;;2.50;99.90;;;;;;5112895;27;21559;-69
2023/04/06 02:26:35;;;;;;;7.00;5.22;;;2.50;99.90;;;;;;5109522;28;20035;-64
2023/04/06 02:29:02;;;;;;;7.38;5.07;;;2.50;99.90;;;;;;5109251;28;20119;-67
2023/04/06 02:31:27;;;;;;;6.65;5.20;;;2.50;99.90;;;;;;5108951;28;20102;-66
2023/04/06 02:33:53;;;;;;;8.02;5.30;;;2.50;99.90;;;;;;5109819;28;20500;-64
2023/04/06 02:36:19;;;;;;;8.98;5.47;;;2.50;99.90;;;;;;5108914;28;20040;-64
2023/04/06 02:38:45;;;;;;;7.60;5.38;;;2.40;99.90;;;;;;5109030;28;20177;-66
2023/04/06 02:41:10;;;;;;;11.00;5.10;;;2.40;99.90;;;;;;5109711;28;20398;-65
2023/04/06 02:43:36;;;;;;;8.48;5.32;;;2.40;99.90;;;;;;5109105;28;20039;-66
2023/04/06 02:46:02;;;;;;;7.28;5.50;;;2.40;99.90;;;;;;5109474;28;20371;-66
2023/04/06 02:48:28;;;;;;;7.95;4.78;;;2.40;99.90;;;;;;5113834;28;20043;-63
2023/04/06 02:50:53;;;;;;;6.28;5.68;;;2.40;99.90;;;;;;5115584;27;20431;-64
2023/04/06 02:53:19;;;;;;;6.65;5.40;;;2.30;99.90;;;;;;5115919;27;20043;-65
2023/04/06 02:55:45;;;;;;;10.75;5.22;;;2.30;99.90;;;;;;5115711;27;20101;-65
2023/04/06 02:58:10;;;;;;;6.45;5.22;;;2.30;99.90;;;;;;5098940;27;20031;-66
2023/04/06 03:00:37;;;;;;;7.75;5.53;;;2.30;99.90;;;;;;5115664;27;20044;-66
2023/04/06 03:03:03;;;;;;;8.10;5.60;;;2.30;99.90;;;;;;5115972;28;20084;-65
2023/04/06 03:05:29;;;;;;;8.32;5.60;;;2.30;99.90;;;;;;5115857;28;20047;-65
2023/04/06 03:07:54;;;;;;;7.00;5.45;;;2.30;99.90;;;;;;5115891;28;20038;-65
2023/04/06 03:10:20;;;;;;;6.53;5.65;;;2.30;99.90;;;;;;5115786;27;20142;-65
2023/04/06 03:12:46;;;;;;;8.45;5.68;;;2.30;99.90;;;;;;5115678;27;20027;-66
2023/04/06 03:15:11;;;;;;;7.35;5.47;;;2.30;99.90;;;;;;5099045;28;20051;-63
2023/04/06 03:17:37;;;;;;;7.85;5.07;;;2.30;99.90;;;;;;5115575;27;20039;-65
2023/04/06 03:20:03;;;;;;;8.57;5.18;;;2.30;99.90;;;;;;5116037;27;20035;-66
2023/04/06 03:22:29;;;;;;;9.70;5.55;;;2.30;99.90;;;;;;5115400;27;20375;-68
2023/04/06 03:24:55;;;;;;;7.72;5.60;;;2.30;99.90;;;;;;5115281;27;20047;-68
2023/04/06 03:27:20;;;;;;;7.35;5.40;;;2.20;99.90;;;;;;5098856;28;20067;-66
2023/04/06 03:29:46;;;;;;;6.93;5.95;;;2.20;99.90;;;;;;5115613;27;20028;-66
2023/04/06 03:32:12;;;;;;;8.20;5.80;;;2.20;99.90;;;;;;5116152;27;20089;-66
2023/04/06 03:34:38;;;;;;;8.80;5.53;;;2.20;99.90;;;;;;5098438;27;20063;-66
2023/04/06 03:37:04;;;;;;;7.32;5.65;;;2.10;99.90;;;;;;5115738;27;20043;-66
2023/04/06 03:39:30;;;;;;;7.80;5.60;;;2.10;99.90;;;;;;5098305;27;20075;-64
2023/04/06 03:41:56;;;;;;;7.43;5.97;;;2.10;99.90;;;;;;5115082;27;20044;-65
2023/04/06 03:44:21;;;;;;;7.68;5.30;;;2.10;99.90;;;;;;5115364;27;20047;-67
2023/04/06 03:46:47;;;;;;;8.27;5.80;;;2.10;99.90;;;;;;5115550;27;20116;-65
2023/04/06 03:49:13;;;;;;;8.27;5.80;;;2.10;99.90;;;;;;5115425;27;20056;-64
2023/04/06 03:51:39;;;;;;;9.75;5.80;;;2.00;99.90;;;;;;5115454;27;20433;-64
2023/04/06 03:54:05;;;;;;;7.18;5.60;;;2.00;99.90;;;;;;5115017;27;20077;-67
2023/04/06 03:56:30;;;;;;;10.43;6.30;;;2.00;99.90;;;;;;5115845;27;20043;-67
2023/04/06 03:58:56;;;;;;;7.57;5.57;;;1.90;99.90;;;;;;5113316;27;20101;-67
2023/04/06 04:01:22;;;;;;;7.88;5.55;;;1.90;99.90;;;;;;5112094;28;20043;-65
2023/04/06 04:03:47;;;;;;;11.18;5.60;;;1.90;99.90;;;;;;5112976;27;20084;-66
2023/04/06 04:06:13;;;;;;;9.82;5.53;;;1.90;99.90;;;;;;5112661;27;20355;-63
2023/04/06 04:08:39;;;;;;;7.45;5.60;;;1.90;99.90;;;;;;5112103;28;20057;-66
2023/04/06 04:11:04;;;;;;;6.28;4.93;;;1.90;99.90;;;;;;5112059;28;20044;-64
2023/04/06 04:13:30;;;;;;;7.70;5.65;;;1.80;99.90;;;;;;5112310;28;20119;-65
2023/04/06 04:15:56;;;;;;;7.40;6.05;;;1.80;99.90;;;;;;5113400;27;20051;-64
2023/04/06 04:18:21;;;;;;;7.50;6.03;;;1.80;99.90;;;;;;5112861;27;20040;-63
2023/04/06 04:20:47;;;;;;;8.70;5.97;;;1.80;99.90;;;;;;5111100;27;20160;-65
2023/04/06 04:23:13;;;;;;;7.32;5.88;;;1.80;99.90;;;;;;5111827;27;20035;-66
2023/04/06 04:25:38;;;;;;;9.52;6.38;;;1.70;99.90;;;;;;5112374;27;20070;-66
2023/04/06 04:28:04;;;;;;;8.30;6.32;;;1.70;99.90;;;;;;5094167;28;20050;-64
2023/04/06 04:30:30;;;;;;;7.95;6.38;;;1.70;99.90;;;;;;5094400;28;20620;-65
2023/04/06 04:32:56;;;;;;;10.02;5.82;;;1.80;99.90;;;;;;5094327;28;20071;-64
2023/04/06 04:35:21;;;;;;;8.95;6.32;;;1.80;99.90;;;;;;5110970;28;20056;-65
2023/04/06 04:37:47;;;;;;;9.77;6.43;;;1.80;99.90;;;;;;5111165;28;20028;-65
2023/04/06 04:40:13;;;;;;;8.02;6.22;;;1.80;99.90;;;;;;5114223;27;20755;-66
2023/04/06 04:42:39;;;;;;;8.50;6.80;;;1.80;99.90;;;;;;5111468;28;20051;-66
2023/04/06 04:45:05;;;;;;;9.30;6.90;;;1.80;99.90;;;;;;5111151;28;20516;-65
2023/04/06 04:47:30;;;;;;;10.43;7.10;;;1.80;99.90;;;;;;5109415;28;20052;-66
2023/04/06 04:49:56;;;;;;;9.98;6.53;;;1.80;99.90;;;;;;5111343;27;20043;-65
2023/04/06 04:52:22;;;;;;;10.30;7.15;;;1.80;99.90;;;;;;5110811;28;20027;-64
2023/04/06 04:54:47;;;;;;;9.93;6.80;;;1.90;99.90;;;;;;5111230;28;20486;-64
2023/04/06 04:57:13;;;;;;;8.65;6.63;;;1.90;99.90;;;;;;5110962;27;20044;-65
2023/04/06 04:59:39;;;;;;;9.85;7.25;;;1.90;99.90;;;;;;5111333;28;20042;-64
2023/04/06 05:02:04;;;;;;;11.55;8.00;;;1.90;99.90;;;;;;5111312;28;20104;-66
2023/04/06 05:04:30;;;;;;;9.18;7.35;;;1.80;99.90;;;;;;5111835;28;20036;-64
2023/04/06 05:07:06;;;;;;;10.25;7.13;;;1.80;99.90;;;;;;5111165;28;20043;-65
2023/04/06 05:09:32;;;;;;;10.93;7.40;;;1.90;99.90;;;;;;5110266;28;20124;-65
2023/04/06 05:11:59;;;;;;;8.73;6.95;;;1.90;99.90;;;;;;5093501;28;20098;-64
2023/04/06 05:14:25;;;;;;;11.35;7.70;;;1.90;99.90;;;;;;5112146;27;20039;-65
2023/04/06 05:16:51;;;;;;;12.00;8.35;;;1.90;99.90;;;;;;5093271;28;20132;-66
2023/04/06 05:19:17;;;;;;;9.43;7.60;;;1.90;99.90;;;;;;5110471;28;20493;-65
2023/04/06 05:21:43;;;;;;;11.35;7.15;;;1.90;99.90;;;;;;5110393;28;20054;-65
2023/04/06 05:24:08;;;;;;;10.18;7.30;;;1.90;99.90;;;;;;5108669;27;20122;-66
2023/04/06 05:26:34;;;;;;;9.48;7.65;;;2.00;99.90;;;;;;5108821;27;20063;-68
2023/04/06 05:29:00;;;;;;;9.63;6.68;;;2.00;99.90;;;;;;5143342;27;20043;-66
2023/04/06 05:31:26;;;;;;;12.07;7.07;;;2.10;99.90;;;;;;5109697;28;20036;-65
2023/04/06 05:33:52;;;;;;;16.02;7.50;;;2.10;99.90;;;;;;5125414;27;20042;-64
2023/04/06 05:36:17;;;;;;;10.07;7.45;;;2.10;99.90;;;;;;5121448;27;20084;-65
2023/04/06 05:38:43;;;;;;;10.32;7.15;;;2.20;99.90;;;;;;5104969;27;20567;-66
2023/04/06 05:41:09;;;;;;;10.10;7.68;;;2.20;99.90;;;;;;5092964;28;20044;-66
2023/04/06 05:43:34;;;;;;;9.57;7.10;;;2.30;99.90;;;;;;5109410;27;20044;-66
2023/04/06 05:46:00;;;;;;;8.68;7.30;;;2.30;99.90;;;;;;5109528;28;20103;-65
2023/04/06 05:48:26;;;;;;;14.52;7.43;;;2.40;99.90;;;;;;5086228;28;20060;-65
2023/04/06 05:50:52;;;;;;;11.07;7.82;;;2.40;99.90;;;;;;5106690;28;20096;-65
2023/04/06 05:53:18;;;;;;;10.38;7.20;;;2.50;99.90;;;;;;5109429;28;20112;-64
2023/04/06 05:55:44;;;;;;;12.32;7.20;;;2.60;99.90;;;;;;5090768;28;20059;-69
2023/04/06 05:58:10;;;;;;;9.77;7.25;;;2.60;99.90;;;;;;5091821;28;20153;-67
2023/04/06 06:00:35;;;;;;;10.18;7.47;;;2.60;99.90;;;;;;5091115;28;20050;-64
2023/04/06 06:03:04;;;;;;;12.80;8.38;;;2.70;99.90;;;;;;5106975;28;20415;-64
2023/04/06 06:05:30;;;;;;;9.75;7.05;;;2.80;99.90;;;;;;5111355;27;20073;-66
2023/04/06 06:07:55;;;;;;;9.80;7.05;;;2.80;99.90;;;;;;5091795;28;20035;-63
2023/04/06 06:10:21;;;;;;;11.05;7.20;;;2.90;99.90;;;;;;5109218;28;20478;-66
2023/04/06 06:12:47;;;;;;;10.07;7.50;;;3.00;99.90;;;;;;5109248;28;20516;-68
2023/04/06 06:15:12;;;;;;;13.43;7.70;;;3.00;99.90;;;;;;5109196;28;20099;-68
2023/04/06 06:17:38;;;;;;;11.50;8.18;;;3.10;99.90;;;;;;5110739;28;20046;-67
2023/04/06 06:20:09;;;;;;;9.98;7.70;;;3.20;99.90;;;;;;5109061;28;20048;-67
2023/04/06 06:22:34;;;;;;;11.48;8.30;;;3.30;99.90;;;;;;5108220;28;20058;-65
2023/04/06 06:25:00;;;;;;;10.38;7.43;;;3.40;99.90;;;;;;5107668;28;20040;-66
2023/04/06 06:27:26;;;;;;;13.05;7.82;;;3.40;99.90;;;;;;5104654;28;20044;-66
2023/04/06 06:29:51;;;;;;;8.93;7.72;;;3.50;99.90;;;;;;5107176;27;20054;-66
2023/04/06 06:32:17;;;;;;;11.70;8.18;;;3.60;99.90;;;;;;5105853;28;20035;-63
2023/04/06 06:34:43;;;;;;;10.65;8.38;;;3.70;99.90;;;;;;5109571;27;20041;-66
2023/04/06 06:37:09;;;;;;;12.48;7.40;;;3.80;99.90;;;;;;5108102;28;20130;-66
2023/04/06 06:39:35;;;;;;;11.18;7.70;;;3.90;99.90;;;;;;5109115;28;20032;-66
2023/04/06 06:42:01;;;;;;;12.63;8.52;;;4.00;99.90;;;;;;5108770;28;20062;-64
2023/04/06 06:44:27;;;;;;;12.02;8.07;;;4.10;99.90;;;;;;5109326;28;20374;-65
2023/04/06 06:46:53;;;;;;;11.52;7.97;;;4.30;99.90;;;;;;5108924;28;20039;-64
2023/04/06 06:49:19;;;;;;;13.77;8.23;;;4.40;99.90;;;;;;5108575;28;20070;-66
2023/04/06 06:51:46;;;;;;;9.82;7.78;;;4.50;99.90;;;;;;5108983;28;20035;-67
2023/04/06 06:54:12;;;;;;;13.73;8.57;;;4.60;99.90;;;;;;5108763;28;20050;-67
2023/04/06 06:56:39;;;;;;;10.07;8.27;;;4.70;99.90;;;;;;5109145;28;20071;-68
2023/04/06 06:59:08;;;;;;;11.05;8.48;;;4.80;99.90;;;;;;5108410;28;20072;-67
2023/04/06 07:01:34;;;;;;;12.63;8.52;;;4.90;99.90;;;;;;5103117;28;20392;-65
2023/04/06 07:04:00;;;;;;;12.68;8.82;;;5.10;99.90;;;;;;5108772;28;20123;-63
2023/04/06 07:06:26;;;;;;;10.95;8.07;;;5.10;99.90;;;;;;5109188;28;20141;-66
2023/04/06 07:08:51;;;;;;;11.13;8.55;;;5.20;99.90;;;;;;5108826;28;20044;-64
2023/04/06 07:11:17;;;;;;;11.73;8.75;;;5.30;99.90;;;;;;5091460;28;20055;-66
2023/04/06 07:13:43;;;;;;;11.63;8.48;;;5.50;99.90;;;;;;5091736;28;20061;-67
2023/04/06 07:16:09;;;;;;;12.10;8.55;;;5.60;99.90;;;;;;5107771;28;20082;-67
2023/04/06 07:18:34;;;;;;;10.10;8.50;;;5.70;99.90;;;;;;5108767;28;20044;-67
2023/04/06 07:21:00;;;;;;;12.85;8.40;;;5.90;99.90;;;;;;5108632;28;20076;-64
2023/04/06 07:23:26;;;;;;;12.88;9.45;;;6.00;99.90;;;;;;5108609;28;20129;-66
2023/04/06 07:25:53;;;;;;;12.60;9.27;;;6.20;99.90;;;;;;5110122;28;20066;-65
2023/04/06 07:28:19;;;;;;;11.57;8.90;;;6.30;99.90;;;;;;5091503;28;20051;-66
2023/04/06 07:30:45;;;;;;;13.65;9.35;;;6.40;99.80;;;;;;5108723;28;20043;-68
2023/04/06 07:33:11;;;;;;;10.70;8.63;;;6.60;99.80;;;;;;5108818;28;20041;-67
2023/04/06 07:35:37;;;;;;;15.27;8.85;;;6.80;99.70;;;;;;5111343;28;20039;-65
2023/04/06 07:38:03;;;;;;;12.18;8.90;;;6.90;99.50;;;;;;5112361;28;20041;-64
2023/04/06 07:40:31;;;;;;;14.15;8.85;;;7.00;99.40;;;;;;5112303;28;20397;-66
2023/04/06 07:42:57;;;;;;;12.23;9.45;;;7.10;99.10;;;;;;5112408;28;20046;-67
2023/04/06 07:45:23;;;;;;;13.25;9.25;;;7.10;99.10;;;;;;5111983;28;21247;-65
2023/04/06 07:47:49;;;;;;;14.90;9.10;;;7.30;99.20;;;;;;5089781;28;20096;-65
2023/04/06 07:50:15;;;;;;;13.40;9.80;;;7.40;99.00;;;;;;5111803;28;20050;-65
2023/04/06 07:52:41;;;;;;;13.55;8.88;;;7.50;99.00;;;;;;5094755;28;20039;-66
2023/04/06 07:55:07;;;;;;;12.52;8.88;;;7.50;99.00;;;;;;5112409;28;20042;-66
2023/04/06 07:57:33;;;;;;;14.27;9.48;;;7.70;98.70;;;;;;5112085;27;20501;-66
2023/04/06 07:59:58;;;;;;;11.02;9.05;;;7.80;98.30;;;;;;5111954;28;20043;-66
2023/04/06 08:02:24;;;;;;;14.30;9.73;;;8.00;98.40;;;;;;5111639;28;20397;-66
2023/04/06 08:04:50;;;;;;;14.02;9.40;;;8.10;98.40;;;;;;5110167;28;20059;-67
2023/04/06 08:07:15;;;;;;;12.60;9.50;;;8.30;98.30;;;;;;5111833;28;20039;-64
2023/04/06 08:09:41;;;;;;;15.88;9.20;;;8.50;98.00;;;;;;5111791;28;20051;-67
2023/04/06 08:12:07;;;;;;;12.63;9.13;;;8.70;98.30;;;;;;5111807;28;20550;-67
2023/04/06 08:14:32;;;;;;;14.50;9.13;;;9.00;98.20;;;;;;5111551;28;20059;-66
2023/04/06 08:16:58;;;;;;;12.88;9.35;;;9.20;97.80;;;;;;5111691;28;20375;-67
2023/04/06 08:19:24;;;;;;;13.50;8.80;;;9.20;96.90;;;;;;5111238;28;20039;-67
2023/04/06 08:21:51;;;;;;;14.15;8.90;;;9.30;96.20;;;;;;5111827;28;20046;-64
2023/04/06 08:24:16;;;;;;;13.50;9.57;;;9.60;96.00;;;;;;5111418;28;20075;-65
2023/04/06 08:26:42;;;;;;;12.45;9.55;;;9.70;95.30;;;;;;5094318;28;20074;-68
2023/04/06 08:29:08;;;;;;;16.33;9.50;;;9.80;94.70;;;;;;5094577;28;20089;-65
2023/04/06 08:31:35;;;;;;;12.88;9.60;;;10.00;94.80;;;;;;5110992;28;20102;-65
2023/04/06 08:34:01;;;;;;;12.77;9.55;;;10.10;94.90;;;;;;5111298;28;20112;-65
2023/04/06 08:36:27;;;;;;;14.85;10.43;;;10.10;93.90;;;;;;5111545;28;20264;-64
2023/04/06 08:38:53;;;;;;;16.73;10.60;;;10.10;94.10;;;;;;5111422;28;20123;-67
2023/04/06 08:41:20;;;;;;;15.65;10.88;;;10.10;93.80;;;;;;5094276;28;20043;-66
2023/04/06 08:44:00;;;;;;;14.18;10.23;;;10.10;93.60;;;;;;5093342;28;20177;-67
2023/04/06 08:46:30;;;;;;;16.63;11.43;;;10.10;92.40;;;;;;5093242;28;20056;-67
2023/04/06 08:48:59;;;;;;;19.50;11.05;;;10.20;93.10;;;;;;5110721;28;20077;-67
2023/04/06 08:51:26;;;;;;;15.85;10.85;;;10.20;93.10;;;;;;5110967;28;20155;-68
2023/04/06 08:53:56;;;;;;;17.30;11.13;;;10.20;91.60;;;;;;5110301;28;20059;-67
2023/04/06 08:56:23;;;;;;;16.13;11.48;;;10.10;91.40;;;;;;5111112;28;20234;-65
2023/04/06 08:58:49;;;;;;;17.65;11.80;;;10.10;91.40;;;;;;5093663;28;20104;-68
2023/04/06 09:01:17;;;;;;;18.63;11.25;;;10.10;91.30;;;;;;5110966;28;20035;-66
2023/04/06 09:03:44;;;;;;;16.17;11.00;;;10.20;91.50;;;;;;5110628;28;20127;-66
2023/04/06 09:06:12;;;;;;;17.90;10.98;;;10.30;91.20;;;;;;5112126;28;20119;-68
2023/04/06 09:08:40;;;;;;;16.35;11.68;;;10.60;91.80;;;;;;5110631;28;20047;-65
2023/04/06 09:11:06;;;;;;;17.63;11.70;;;10.80;91.10;;;;;;5109817;28;20039;-68
2023/04/06 09:13:43;;;;;;;19.00;12.88;;;11.00;89.70;;;;;;5110926;28;20451;-67
2023/04/06 09:16:09;;;;;;;18.20;12.15;;;11.00;88.50;;;;;;5111274;28;20382;-67
2023/04/06 09:18:35;;;;;;;18.05;11.88;;;11.10;89.30;;;;;;5110765;28;20040;-67
2023/04/06 09:21:05;;;;;;;17.23;12.10;;;11.30;89.70;;;;;;5110396;28;20044;-67
2023/04/06 09:23:32;;;;;;;17.80;12.75;;;11.30;88.50;;;;;;5110980;28;20118;-64
2023/04/06 09:26:17;;;;;;;16.48;12.93;;;11.30;88.20;;;;;;5110441;28;20047;-67
2023/04/06 09:28:45;;;;;;;20.60;13.70;;;11.30;88.40;;;;;;5110786;28;20031;-65
2023/04/06 09:31:16;;;;;;;20.08;14.68;;;11.40;88.50;;;;;;5110611;28;20042;-67
2023/04/06 09:33:45;;;;;;;18.58;14.00;;;11.50;86.60;;;;;;5110711;27;20035;-64
2023/04/06 09:36:11;;;;;;;19.35;14.05;;;11.50;85.50;;;;;;5112080;28;20080;-66
2023/04/06 09:38:55;;;;;;;22.40;13.98;;;11.50;85.60;;;;;;5110608;28;20028;-68
2023/04/06 09:41:23;;;;;;;18.75;13.48;;;11.50;83.40;;;;;;5110699;28;20128;-67
2023/04/06 09:43:50;;;;;;;18.42;13.02;;;11.60;84.40;;;;;;5110061;28;20047;-67
2023/04/06 09:46:17;;;;;;;18.83;13.68;;;11.60;84.70;;;;;;5110078;28;20115;-67
2023/04/06 09:48:44;;;;;;;20.50;13.00;;;11.60;84.90;;;;;;5110282;28;20478;-66
2023/04/06 09:51:13;;;;;;;18.70;13.60;;;11.70;85.10;;;;;;5111361;28;20478;-67
2023/04/06 09:53:44;;;;;;;16.95;12.15;;;11.80;85.40;;;;;;5110417;28;20394;-67
2023/04/06 09:56:16;;;;;;;20.95;14.25;;;11.80;85.80;;;;;;5110316;28;20047;-65
2023/04/06 09:58:45;;;;;;;18.88;13.05;;;11.90;84.50;;;;;;5092279;28;20052;-65
2023/04/06 10:01:15;;;;;;;20.25;14.00;;;11.90;84.10;;;;;;5109911;28;20124;-66
2023/04/06 10:04:01;;;;;;;19.27;13.80;;;12.00;84.10;;;;;;5093111;28;20039;-63
2023/04/06 10:06:33;;;;;;;18.70;13.82;;;12.20;85.60;;;;;;5093292;28;20452;-66
2023/04/06 10:09:00;;;;;;;20.67;13.57;;;12.40;83.50;;;;;;5109724;28;20024;-68
2023/04/06 10:11:25;;;;;;;21.35;14.13;;;12.40;83.40;;;;;;5110102;28;20466;-67
2023/04/06 10:13:51;;;;;;;19.55;13.95;;;12.20;81.20;;;;;;5109790;28;20095;-67
2023/04/06 10:16:17;;;;;;;20.10;13.63;;;12.10;80.90;;;;;;5109505;28;20417;-66
2023/04/06 10:18:48;;;;;;;18.92;13.40;;;12.10;82.20;;;;;;5106145;27;20539;-65
2023/04/06 10:21:19;;;;;;;22.90;14.48;;;12.10;82.30;;;;;;5142771;27;20125;-67
2023/04/06 10:23:58;;;;;;;19.63;14.25;;;12.00;81.50;;;;;;5110949;28;20086;-69
2023/04/06 10:26:24;;;;;;;18.08;14.13;;;12.00;82.00;;;;;;5109625;28;20475;-66
2023/04/06 10:28:51;;;;;;;20.05;13.30;;;12.10;82.90;;;;;;5109559;28;20078;-66
2023/04/06 10:31:25;;;;;;;20.90;14.23;;;12.30;83.30;;;;;;5109189;28;20074;-68
2023/04/06 10:34:00;;;;;;;23.75;14.95;;;12.40;81.40;;;;;;5109125;28;20082;-65
2023/04/06 10:36:35;;;;;;;21.38;14.45;;;12.50;80.90;;;;;;5109333;28;20501;-68
2023/04/06 10:39:06;;;;;;;20.75;14.75;;;12.50;78.30;;;;;;5109028;28;20119;-68
2023/04/06 10:41:40;;;;;;;21.38;15.05;;;12.50;77.20;;;;;;5109254;28;20126;-67
2023/04/06 10:44:06;;;;;;;22.42;15.30;;;12.40;77.30;;;;;;5108577;28;20043;-69
2023/04/06 10:46:33;;;;;;;21.05;15.57;;;12.30;77.40;;;;;;5109244;28;20651;-66
2023/04/06 10:49:11;;;;;;;23.85;15.88;;;12.40;77.80;;;;;;5108912;28;20058;-66
2023/04/06 10:51:38;;;;;;;21.55;14.10;;;12.50;78.70;;;;;;5091915;28;20036;-69
2023/04/06 10:54:06;;;;;;;24.35;14.90;;;12.50;79.10;;;;;;5108980;28;20043;-66
2023/04/06 10:56:36;;;;;;;23.65;16.42;;;12.60;79.10;;;;;;5110320;28;20059;-66
2023/04/06 10:59:01;;;;;;;21.23;14.65;;;12.70;78.60;;;;;;5109168;28;20501;-67
2023/04/06 11:01:27;;;;;;;23.67;14.88;;;12.70;78.20;;;;;;5108590;28;20038;-67
2023/04/06 11:04:00;;;;;;;20.95;15.18;;;13.00;78.80;;;;;;5108981;28;20047;-68
2023/04/06 11:06:29;;;;;;;21.52;15.18;;;13.10;77.80;;;;;;5091162;28;20114;-66
2023/04/06 11:08:55;;;;;;;22.98;15.38;;;13.20;76.90;;;;;;5112230;28;20031;-67
2023/04/06 11:11:23;;;;;;;21.45;15.05;;;13.20;76.00;;;;;;5112611;28;20036;-70
2023/04/06 11:13:56;;;;;;;23.38;16.02;;;13.10;75.30;;;;;;5114498;28;20342;-66
2023/04/06 11:16:26;;;;;;;19.73;15.38;;;13.00;75.70;;;;;;5112773;28;20164;-65
2023/04/06 11:19:03;;;;;;;21.98;15.52;;;13.10;76.30;;;;;;5113079;28;20125;-66
2023/04/06 11:21:43;;;;;;;22.85;15.98;;;13.20;76.30;;;;;;5112700;28;20075;-68
2023/04/06 11:24:17;;;;;;;20.30;15.10;;;13.30;76.30;;;;;;5112026;28;20054;-67
2023/04/06 11:26:57;;;;;;;23.35;15.55;;;13.40;75.70;;;;;;5095857;28;20994;-66
2023/04/06 11:29:23;;;;;;;20.80;15.38;;;13.50;74.70;;;;;;5095158;28;20051;-67
2023/04/06 11:31:51;;;;;;;21.80;15.63;;;13.60;75.00;;;;;;5112875;28;20486;-66
2023/04/06 11:34:22;;;;;;;23.58;14.90;;;13.80;75.20;;;;;;5112676;28;20052;-65
2023/04/06 11:36:53;;;;;;;21.42;15.93;;;13.80;73.10;;;;;;5112625;28;20042;-66
2023/04/06 11:39:24;;;;;;;23.48;16.13;;;13.80;72.60;;;;;;5112249;28;20040;-68
2023/04/06 11:41:57;;;;;;;23.23;16.17;;;13.80;72.30;;;;;;5112499;28;20096;-68
2023/04/06 11:44:36;;;;;;;;;;;13.80;73.00;;;;;;5095379;28;20063;-66
2023/04/06 11:47:03;;;;;;;21.65;16.17;;;13.70;72.00;;;;;;5112448;28;19998;-68
2023/04/06 11:49:32;;;;;;;23.25;16.25;;;13.50;72.80;;;;;;5130141;27;20135;-67
2023/04/06 11:51:59;;;;;;;20.58;15.35;;;13.40;73.00;;;;;;5134264;27;20046;-64
2023/04/06 11:54:36;;;;;;;22.48;16.05;;;13.40;74.20;;;;;;5115065;27;20177;-65
2023/04/06 11:57:04;;;;;;;23.48;16.23;;;13.30;72.40;;;;;;5114869;27;20473;-67
2023/04/06 11:59:29;;;;;;;24.10;16.13;;;13.30;73.30;;;;;;5115515;27;20469;-67
2023/04/06 12:01:57;;;;;;;21.98;14.85;;;13.30;73.70;;;;;;5115757;27;20035;-67
2023/04/06 12:04:22;;;;;;;24.25;16.10;;;13.30;74.70;;;;;;5115282;27;20122;-67
2023/04/06 12:06:48;;;;;;;24.98;17.02;;;13.30;73.10;;;;;;5098235;27;20599;-65
2023/04/06 12:09:14;;;;;;;24.63;15.40;;;13.30;73.60;;;;;;5115334;27;20079;-64
2023/04/06 12:11:40;;;;;;;20.73;15.38;;;13.20;74.20;;;;;;5114732;27;20322;-65
2023/04/06 12:14:07;;;;;;;20.38;15.40;;;13.10;74.00;;;;;;5115586;27;20544;-67
2023/04/06 12:16:36;;;;;;;20.83;13.98;;;12.90;75.40;;;;;;5115235;27;20493;-67
2023/04/06 12:19:02;;;;;;;19.10;14.00;;;12.80;75.20;;;;;;5115407;27;20385;-66
2023/04/06 12:21:28;;;;;;;20.73;14.55;;;12.80;74.70;;;;;;5114390;27;20043;-68
2023/04/06 12:23:54;;;;;;;22.35;15.38;;;12.70;74.40;;;;;;5114983;27;20502;-64
2023/04/06 12:26:21;;;;;;;20.98;14.70;;;12.70;75.10;;;;;;5115172;27;20125;-66
2023/04/06 12:28:47;;;;;;;24.48;16.08;;;12.70;75.40;;;;;;5115209;27;20062;-66
2023/04/06 12:31:21;;;;;;;21.13;14.90;;;12.70;75.80;;;;;;5114940;27;20070;-66
2023/04/06 12:33:48;;;;;;;20.42;13.88;;;12.70;77.10;;;;;;5133191;27;20043;-67
2023/04/06 12:36:18;;;;;;;21.50;14.80;;;12.70;77.10;;;;;;5114660;27;20055;-67
2023/04/06 12:38:47;;;;;;;19.35;13.90;;;12.70;76.90;;;;;;5114414;27;20047;-68
2023/04/06 12:41:13;;;;;;;21.77;13.38;;;12.60;76.50;;;;;;5114793;27;20039;-66
2023/04/06 12:43:43;;;;;;;22.58;14.43;;;12.70;78.20;;;;;;5114446;27;20122;-67